Weather observations for the past three days for
Paris - Henry County Airport
Metric (Imperial)
Date Time (cdt) Wind (kph) Vis. (km) Weather Sky Cond. Temperature (ºC) Relative Humidity Wind Chill (°C) Heat Index (°C) Pressure Precipitation (cm)
Air Dwpt 6 hour altimeter (cm) sea level (mb) 1 hr 3 hr 6 hr
Max. Min.
07 17:15 Calm 16.09 Fair CLR 19 2 32% 76.15 0.0
07 16:55 Calm 16.09 Fair CLR 19 1 30% 76.15 0.0
07 16:35 Vrbl 9 G 19 16.09 Fair CLR 19 3 35% 76.15 0.0
07 16:15 Vrbl 9 16.09 Fair CLR 18 3 37% 76.15 0.0
07 15:55 N 13 16.09 Fair CLR 19 3 35% 76.15 0.0
07 15:35 NW 15 16.09 Fair CLR 19 3 35% 76.15 0.0
07 15:15 Vrbl 9 16.09 Fair CLR 19 3 35% 76.17 0.0
07 14:55 N 15 16.09 Fair CLR 19 4 37% 76.2 0.0
07 14:35 NW 15 G 24 16.09 Fair CLR 18 3 37% 76.2 0.0
07 14:15 Vrbl 9 G 20 16.09 Fair CLR 18 4 40% 76.2 0.0
07 13:55 W 13 G 26 16.09 Fair CLR 18 4 40% 76.2 0.0
07 13:35 Vrbl 11 16.09 Fair CLR 18 4 40% 76.2 0.0
07 13:15 NW 9 G 22 16.09 Fair CLR 18 4 40% 76.23 0.0
07 12:55 NW 9 G 20 16.09 Fair CLR 17 4 42% 76.23 0.0
07 12:35 N 13 G 26 16.09 Fair CLR 17 4 42% 76.25 0.0
07 12:15 Vrbl 7 G 20 16.09 Fair CLR 17 3 39% 76.28 0.0
07 11:55 NW 7 G 19 16.09 Fair CLR 17 3 39% 76.28 0.0
07 11:30 NE 11 16.09 A Few Clouds FEW050 16 5 48% 76.3 0.0
07 11:15 Vrbl 9 G 20 11.27 A Few Clouds FEW050 16 5 48% 76.33 0.0
07 10:55 N 17 9.66 Fair with Haze CLR 16 3 42% 76.33 0.0
07 10:35 N 11 16.09 Fair CLR 16 5 48% 76.3 0.0
07 10:10 N 13 16.09 Fair CLR 15 5 51% 76.3 0.0
07 09:55 N 13 16.09 Fair CLR 15 6 55% 76.3 0.0
07 09:35 NE 11 16.09 Fair CLR 14 7 63% 76.33 0.0
07 09:15 N 9 16.09 Fair CLR 14 8 67% 76.3 0.0
07 08:35 N 11 16.09 Fair CLR 13 8 72% 76.3 0.0
07 08:15 N 13 G 22 16.09 Fair CLR 12 8 77% 76.28 0.0
07 07:55 N 13 16.09 Fair CLR 11 9 88% 76.28 0.0
07 07:35 N 9 16.09 Fair CLR 11 10 94% 76.28 0.0
07 07:15 N 11 16.09 Fair CLR 10 10 100% 9 76.25 0.0
07 06:55 N 9 16.09 Fair CLR 9 9 100% 8 76.25 0.0
07 06:35 Calm 16.09 Fair CLR 7 7 100% 76.23 0.0
07 06:15 N 7 16.09 Fair CLR 8 8 100% 7 76.23 0.0
07 05:55 N 7 16.09 Fair CLR 8 8 100% 7 76.23 0.0
07 05:35 N 7 16.09 Fair CLR 8 8 100% 7 76.2 0.0
07 05:15 N 9 16.09 Fair CLR 8 8 100% 7 76.2 0.0
07 04:55 N 9 16.09 Fair CLR 8 8 100% 7 76.2 0.0
07 04:35 N 7 16.09 Fair CLR 8 8 100% 7 76.2 0.0
07 04:15 Calm 16.09 Fair CLR 8 8 100% 76.17 0.0
07 03:55 N 7 16.09 Fair CLR 8 8 100% 7 76.15 0.0
07 03:35 N 9 16.09 A Few Clouds FEW047 FEW100 9 9 100% 8 76.15 0.0
07 03:15 N 7 16.09 Mostly Cloudy BKN095 9 9 100% 8 76.15 0.0
07 02:55 N 7 16.09 Overcast OVC090 9 9 100% 8 76.15 0.0
07 02:35 Calm 16.09 Overcast OVC090 9 9 100% 76.17 0.0
07 02:15 Calm 16.09 Mostly Cloudy BKN090 9 9 100% 76.17 0.0
07 01:55 N 6 16.09 Partly Cloudy SCT090 9 9 100% 76.15 0.0
07 01:35 N 6 16.09 Mostly Cloudy BKN090 BKN120 9 9 100% 76.15 0.0
07 01:15 Calm 16.09 A Few Clouds FEW090 FEW110 9 9 100% 76.17 0.0
07 00:55 Calm 1.21 Fog/Mist BKN040 BKN046 OVC120 8 8 100% 76.17 0.0
07 00:35 Calm 16.09 Mostly Cloudy FEW040 SCT046 BKN100 9 9 100% 76.17 0.0
07 00:15 Calm 16.09 Mostly Cloudy SCT041 BKN100 9 9 100% 76.17 0.0
06 23:55 Calm 12.87 Partly Cloudy SCT039 SCT048 9 9 100% 76.17 0.0
06 23:35 Calm 9.66 Fog/Mist FEW038 SCT046 9 9 100% 76.17 0.0
06 23:15 Calm 16.09 A Few Clouds FEW035 FEW043 9 9 100% 76.17 0.0
06 22:55 Calm 16.09 Fair CLR 10 10 100% 76.17 0.0
06 22:35 Calm 16.09 Fair CLR 10 10 100% 76.2 0.0
06 22:15 Calm 16.09 Fair CLR 10 10 100% 76.15 0.0
06 21:55 NE 6 16.09 Fair CLR 11 11 100% 76.12 0.0
06 21:35 N 6 16.09 Fair CLR 11 11 100% 76.15 0.0
06 21:15 Calm 16.09 A Few Clouds FEW120 11 11 100% 76.15 0.0
06 20:55 Calm 16.09 Partly Cloudy SCT120 11 11 100% 76.12 0.0
06 20:35 N 6 16.09 A Few Clouds FEW120 12 12 100% 76.15 0.0
06 20:15 N 7 16.09 Fair CLR 11 11 100% 76.15 0.0
06 19:55 N 6 12.87 Partly Cloudy FEW050 FEW070 SCT110 12 12 100% 76.15 0.0
06 19:35 Calm 16.09 Overcast FEW050 SCT080 OVC120 12 12 100% 76.17 0.0
06 19:15 Calm 16.09 Mostly Cloudy FEW032 FEW055 BKN120 12 12 100% 76.15 0.0
06 18:55 Calm 16.09 Partly Cloudy SCT120 12 12 100% 76.1 0.0
06 18:35 NE 7 16.09 Mostly Cloudy BKN120 12 12 100% 76.05 0.0
06 18:15 N 9 16.09 Partly Cloudy FEW075 FEW090 SCT120 12 12 100% 76 0.0
06 17:55 N 11 14.48 A Few Clouds FEW075 FEW090 12 12 100% 76.02 0.0 0.1
06 17:35 N 7 9.66 Fog/Mist CLR 12 12 100% 76.05 0.0
06 17:15 Calm 11.27 Fair CLR 12 12 100% 76.12 0.0
06 16:55 N 6 14.48 A Few Clouds FEW027 12 12 100% 76.07 0.0 0.1
06 16:35 N 6 12.87 A Few Clouds FEW027 12 12 100% 76.07 0.0
06 16:15 Calm 6.44 Fog/Mist CLR 12 12 100% 76.05 0.0
06 15:55 NW 9 8.05 Fog/Mist CLR 12 12 100% 76.1 0.0 0.05
06 15:35 N 9 16.09 A Few Clouds FEW037 13 12 94% 76.12 0.0
06 15:15 N 7 16.09 Mostly Cloudy BKN037 13 12 94% 76.07 0.0
06 14:55 N 6 16.09 Partly Cloudy FEW015 SCT023 SCT037 12 12 100% 76.12 0.0
06 14:35 Vrbl 6 16.09 Overcast BKN015 OVC020 12 12 100% 76.15 0.0
06 14:15 N 9 14.48 Overcast SCT013 OVC020 12 12 100% 76.12 0.0
06 13:55 N 13 16.09 Overcast OVC013 12 11 94% 76.07 0.0
06 13:35 Vrbl 9 16.09 Overcast OVC014 12 11 94% 76.15 0.0
06 13:15 N 13 16.09 Overcast OVC013 12 11 94% 76.1 0.0
06 12:55 N 11 16.09 Overcast OVC013 12 11 94% 76.12 0.0
06 12:35 N 13 16.09 Overcast OVC014 13 11 88% 76.1 0.0
06 12:15 N 15 16.09 Overcast OVC012 12 11 94% 76.1 0.0
06 11:55 N 13 G 26 16.09 Overcast OVC011 11 11 100% 76.1 0.0
06 11:35 N 13 16.09 Overcast OVC012 12 11 94% 76.07 0.0
06 11:15 N 19 16.09 Overcast OVC012 12 11 94% 76.07 0.0
06 10:55 NE 17 16.09 Overcast OVC012 11 11 100% 76.1 0.0
06 10:35 N 13 16.09 Overcast OVC011 11 11 100% 76.12 0.0
06 10:15 N 11 16.09 Overcast BKN011 OVC060 11 11 100% 76.1 0.0
06 09:55 N 13 16.09 Overcast BKN011 BKN050 OVC060 11 11 100% 76.07 0.0
06 09:35 N 13 16.09 Overcast BKN009 BKN013 OVC060 11 11 100% 76.05 0.0
06 09:15 N 15 16.09 Overcast OVC007 10 10 100% 8 76.02 0.0
06 08:55 N 11 16.09 Overcast OVC006 10 10 100% 9 76 0.0
06 08:35 N 9 G 20 16.09 Overcast OVC005 10 10 100% 9 76 0.0
06 08:15 N 13 G 24 16.09 Overcast OVC005 10 10 100% 8 75.97 0.0
06 07:55 N 17 16.09 Overcast OVC005 10 10 100% 8 75.92 0.0
06 07:35 N 17 16.09 Overcast OVC004 10 10 100% 8 75.9 0.0
06 07:15 N 13 16.09 Overcast OVC004 10 10 100% 8 75.87 0.0
06 06:55 N 17 16.09 Overcast BKN005 BKN009 OVC034 10 10 100% 8 75.84 0.0
06 06:35 N 9 16.09 Overcast FEW009 OVC033 10 10 100% 9 75.87 0.0
06 06:15 N 7 G 19 16.09 Overcast OVC032 10 10 100% 9 75.87 0.0
06 05:55 NE 11 16.09 Overcast OVC030 10 10 100% 9 75.82 0.0
06 05:35 NE 9 G 19 16.09 NULL NULL 10 10 100% 9 75.84 0.0
06 05:15 NE 15 0.00 NULL NULL 10 10 100% 8 75.82 0.0
06 04:55 N 15 0.00 NULL NULL 11 10 94% 75.79 0.0
06 04:35 N 17 0.00 NULL NULL 11 10 94% 75.77 0.0
06 04:15 NE 19 0.00 NULL NULL 11 11 100% 75.72 0.0
06 03:55 NE 17 16.09 Overcast BKN007 BKN013 OVC026 11 11 100% 75.72 0.0 0.23
06 03:35 N 19 16.09 Overcast OVC008 11 10 94% 75.74 0.0
06 03:15 N 15 14.48 Overcast BKN008 BKN011 OVC020 11 11 100% 75.72 0.0
06 02:55 NW 17 G 30 16.09 Overcast BKN009 BKN013 OVC024 11 11 100% 75.77 0.0 0.15
06 02:35 N 17 9.66 Fog/Mist BKN007 OVC010 11 11 100% 75.72 0.0
06 02:15 N 19 6.44 Fog/Mist BKN006 BKN009 OVC019 11 11 100% 75.72 0.0
06 01:55 N 15 G 28 4.02 Fog/Mist BKN006 OVC018 11 11 100% 75.64 0.0 0.13
06 01:35 N 20 12.87 Overcast OVC005 11 11 100% 75.64 0.0
06 01:15 N 17 16.09 Overcast OVC005 12 12 100% 75.62 0.0
06 00:55 N 17 G 30 9.66 Fog/Mist BKN005 OVC014 12 12 100% 75.57 0.0 0.03
06 00:35 N 17 G 26 16.09 Overcast BKN005 OVC014 13 13 100% 75.57 0.0
06 00:15 N 17 G 28 16.09 Overcast BKN005 BKN009 OVC015 14 14 100% 75.62 0.0
05 23:55 NW 17 G 30 8.05 Fog/Mist SCT004 BKN010 OVC017 18 18 100% 75.59 0.0 0.61
05 23:35 Vrbl 9 G 19 3.22 Fog/Mist FEW003 BKN011 OVC040 18 18 100% 75.54 0.0
05 23:15 S 20 9.66 Fog/Mist BKN034 BKN047 OVC060 19 19 100% 75.49 0.0
05 22:55 S 19 G 30 16.09 Overcast OVC034 19 19 100% 75.46 0.0
05 22:35 S 20 16.09 Overcast OVC032 19 19 100% 75.49 0.0
05 22:15 S 19 G 28 16.09 Overcast OVC032 18 18 100% 75.51 0.0
05 21:55 S 17 14.48 Overcast OVC031 18 18 100% 75.49 0.0
05 21:35 S 19 16.09 Overcast OVC029 18 18 100% 75.51 0.0
05 21:15 S 17 16.09 Overcast OVC025 18 18 100% 75.51 0.0
05 20:55 S 17 16.09 Overcast OVC023 18 18 100% 75.49 0.0 0.03
05 20:35 S 13 16.09 Overcast OVC024 17 17 100% 75.51 0.0
05 20:15 S 15 12.87 Overcast OVC025 17 17 100% 75.49 0.0
05 19:55 S 15 11.27 Overcast OVC025 17 17 100% 75.51 0.0 0.03
05 19:35 S 15 G 28 6.44 Fog/Mist OVC024 17 17 100% 75.54 0.0
05 19:15 S 17 4.02 Fog/Mist OVC022 17 17 100% 75.51 0.0
05 18:55 S 13 9.66 Fog/Mist FEW008 OVC023 17 17 100% 75.57 0.0
05 18:35 S 19 4.02 Fog/Mist SCT007 BKN011 OVC025 17 17 100% 75.57 0.0
05 18:15 S 15 3.22 Fog/Mist SCT006 BKN010 BKN019 17 17 100% 75.57 0.0
05 17:40 S 15 2.82 Fog/Mist BKN006 BKN022 BKN026 17 17 100% 75.59 0.0
05 17:20 S 17 2.41 Fog/Mist BKN007 OVC025 17 17 100% 75.59 0.0
05 17:10 S 15 2.01 Fog/Mist BKN007 OVC025 17 17 100% 75.59 0.0
05 16:50 S 17 1.61 Fog/Mist BKN007 BKN013 17 17 100% 75.59 0.0
05 16:30 S 15 2.01 Fog/Mist BKN008 BKN013 BKN018 17 17 100% 75.62 0.0
05 16:10 S 19 2.41 Fog/Mist SCT013 BKN019 BKN027 17 17 100% 75.62 0.0
05 15:40 S 35 G 50 8.05 Overcast with Haze and Breezy BKN021 OVC028 19 17 88% 75.59 0.0
05 15:35 S 26 G 44 12.87 Overcast BKN021 BKN028 OVC041 20 17 83% 75.59 0.0
05 15:10 S 26 G 39 14.48 Overcast BKN022 BKN031 OVC048 21 17 78% 75.59 0.0
05 14:45 S 22 G 43 14.48 Overcast BKN020 OVC025 21 18 83% 75.62 0.0
05 14:35 S 37 G 50 14.48 Overcast and Breezy BKN020 OVC025 21 18 83% 75.62 0.0
05 14:15 S 30 G 41 14.48 Mostly Cloudy BKN020 BKN028 BKN041 21 18 83% 75.64 0.0
05 13:50 S 31 G 44 14.48 Mostly Cloudy FEW015 BKN020 BKN029 21 19 88% 75.67 0.0
05 13:35 S 26 14.48 Overcast BKN016 BKN041 OVC060 20 18 88% 75.69 0.0
05 13:15 S 19 12.87 Overcast BKN016 OVC032 18 18 100% 75.72 0.0
05 12:55 S 20 14.48 Overcast BKN015 OVC024 18 18 100% 75.74 0.0
05 12:35 S 20 14.48 Overcast BKN016 BKN024 OVC029 18 17 94% 75.77 0.0
05 12:15 S 20 G 41 14.48 Overcast BKN016 BKN023 OVC038 18 17 94% 75.77 0.0
05 11:55 S 15 G 26 14.48 Mostly Cloudy FEW016 SCT025 BKN031 18 18 100% 75.77 0.0
05 11:30 S 17 14.48 Overcast SCT016 BKN065 OVC085 17 17 100% 75.77 0.0
05 11:15 S 17 14.48 Mostly Cloudy FEW070 BKN085 16 16 100% 75.77 0.0
05 10:55 S 15 11.27 Fair CLR 16 16 100% 75.74 0.0 0.1
05 10:35 S 20 G 30 11.27 Fair CLR 15 15 100% 75.72 0.0
05 10:15 SE 19 6.44 Fog/Mist FEW037 FEW047 FEW060 15 15 100% 75.74 0.0
05 09:50 S 11 4.83 Fog/Mist FEW031 SCT036 BKN047 15 15 100% 75.82 0.0
05 09:35 SW 15 4.83 Fog/Mist SCT031 BKN037 BKN048 15 15 100% 75.82 0.0
05 09:15 SW 19 G 28 4.02 Fog/Mist SCT031 SCT038 BKN046 16 14 88% 75.82 0.0
05 08:55 S 17 G 30 12.87 Mostly Cloudy FEW045 SCT070 BKN110 16 13 83% 75.79 0.0
05 08:35 S 19 G 28 16.09 Partly Cloudy SCT070 SCT110 17 12 73% 75.77 0.0
05 08:10 S 22 G 31 16.09 Mostly Cloudy SCT055 BKN065 BKN110 17 12 73% 75.77 0.0
05 07:55 S 22 G 31 14.48 Partly Cloudy SCT055 17 12 73% 75.77 0.0
05 07:35 S 20 14.48 Fair CLR 17 11 68% 75.74 0.0
05 07:15 S 19 16.09 Fair CLR 16 11 72% 75.74 0.0
05 06:55 S 19 16.09 Fair CLR 16 11 72% 75.72 0.0
05 06:30 S 15 16.09 Fair CLR 16 11 72% 75.72 0.0
05 06:15 S 13 16.09 Fair CLR 15 11 77% 75.72 0.0
05 05:55 S 15 16.09 Fair CLR 15 11 77% 75.69 0.0
05 05:35 S 11 16.09 A Few Clouds FEW055 15 11 77% 75.69 0.0
05 05:15 S 11 16.09 A Few Clouds FEW055 15 11 77% 75.69 0.0
05 04:50 S 11 16.09 Fair CLR 15 10 72% 75.72 0.0
05 04:35 S 9 16.09 Fair CLR 15 10 72% 75.72 0.0
05 04:15 S 11 16.09 Fair CLR 15 10 72% 75.69 0.0
05 03:55 S 9 16.09 Fair CLR 15 10 72% 75.69 0.0
05 03:35 S 11 16.09 Fair CLR 16 10 68% 75.67 0.0
05 03:10 S 9 16.09 Fair CLR 16 10 68% 75.67 0.0
05 02:55 S 11 G 20 16.09 Fair CLR 16 10 68% 75.67 0.0
05 02:35 S 13 16.09 Fair CLR 17 10 64% 75.67 0.0
05 02:15 SW 15 G 26 16.09 Fair CLR 17 10 64% 75.67 0.0
05 01:55 S 17 16.09 Fair CLR 17 10 64% 75.67 0.0
05 01:30 S 15 16.09 Fair CLR 17 10 64% 75.72 0.0
05 01:15 SW 15 16.09 Fair CLR 17 9 60% 75.74 0.0
05 00:55 S 13 16.09 Fair CLR 17 9 60% 75.74 0.0
05 00:35 S 15 16.09 Fair CLR 17 9 60% 75.77 0.0
05 00:15 SW 15 16.09 Fair CLR 17 9 60% 75.77 0.0
04 23:50 SW 15 16.09 A Few Clouds FEW060 17 9 60% 75.77 0.0
04 23:35 S 11 16.09 A Few Clouds FEW060 17 9 60% 75.77 0.0
04 23:15 S 13 16.09 A Few Clouds FEW060 18 9 56% 75.77 0.0
04 22:55 SW 17 G 26 16.09 A Few Clouds FEW060 20 9 49% 75.77 0.0
04 22:35 S 15 G 26 16.09 A Few Clouds FEW060 20 9 49% 75.74 0.0
04 22:10 SW 17 G 26 16.09 Partly Cloudy SCT060 20 9 49% 75.74 0.0
04 21:55 S 17 16.09 A Few Clouds FEW060 20 9 49% 75.72 0.0
04 21:35 S 17 16.09 Fair CLR 20 9 49% 75.72 0.0
04 21:15 S 17 G 28 16.09 Fair CLR 20 9 49% 75.69 0.0
04 20:55 S 15 16.09 Fair CLR 20 9 49% 75.67 0.0
04 20:30 S 11 16.09 A Few Clouds FEW050 20 10 53% 75.67 0.0
04 20:15 S 15 16.09 Fair CLR 20 9 49% 75.67 0.0
04 19:55 S 11 16.09 Fair CLR 21 9 46% 75.67 0.0
04 19:35 S 15 G 24 14.48 Fair CLR 22 9 44% 75.67 0.0
04 19:15 SW 19 16.09 Fair CLR 23 9 41% 75.67 0.0
04 18:50 S 20 14.48 A Few Clouds FEW075 24 9 39% 25 75.69 0.0
04 18:35 SW 20 G 31 14.48 A Few Clouds FEW070 24 9 39% 25 75.69 0.0
04 18:15 S 24 G 35 12.87 A Few Clouds FEW070 25 9 36% 26 75.72 0.0
04 17:55 SW 20 G 39 14.48 Partly Cloudy SCT070 26 9 34% 26 75.72 0.0
Date Time (cdt) Wind (kph) Vis. (km) Weather Sky Cond. Air Dwpt Max. Min. Relative Humidity Wind Chill (°C) Heat Index (°C) altimeter (cm) sea level (mb) 1 hr 3 hr 6 hr
6 hour
Temperature (ºC) Pressure Precipitation (cm)